Toledo, Ohio
Current Conditions -  °F | °C
As of 3:06 AM on Thursday 18 Dec 2014 (Local Time) from KTDZ Reporting Station
Overcast Overcast  
Wind Chill: -6°   Ceiling: 2900
Heat Index: -1°   Visibility: 10mi
Dew Point: -7°   Wind: 9mph
Humidity: 66%   Direction: 280°W
Pressure: 30.23"   Gusts: NA
Location:  41.65°N, 83.54°W
Report Text: KTDZ 180806Z AUTO 28008KT 10SM OVC029 M01/M07 A3023 RMK AO2 T10111067 TSNO
Loading
Personal Weather Stations






























Interactive Weather Map New forecast layout! Learn more

10-Day Weather Forecast

Advertisements
Track Severe Weather on mobile